createdAt,value
2019-04-05T00:01:34.422Z,86.63
2019-04-05T00:04:03.464Z,82.10
2019-04-05T00:06:32.494Z,89.27
2019-04-05T00:09:01.204Z,92.23
2019-04-05T00:11:30.228Z,89.83
2019-04-05T00:13:59.045Z,85.77
2019-04-05T00:16:27.887Z,87.10
2019-04-05T00:18:56.820Z,99.63
2019-04-05T00:21:25.801Z,99.37
2019-04-05T00:23:54.515Z,103.07
2019-04-05T00:26:23.296Z,102.07
2019-04-05T00:28:52.403Z,98.17
2019-04-05T00:31:21.363Z,101.67
2019-04-05T00:33:51.713Z,103.43
2019-04-05T00:36:20.432Z,100.03
2019-04-05T00:38:49.139Z,96.93
2019-04-05T00:41:17.923Z,93.27
2019-04-05T00:43:47.077Z,96.30
2019-04-05T00:46:15.782Z,96.23
2019-04-05T00:48:44.859Z,101.87
2019-04-05T00:51:13.577Z,95.43
2019-04-05T00:53:42.443Z,104.63
2019-04-05T00:56:11.517Z,104.53
2019-04-05T00:58:40.682Z,96.10
2019-04-05T01:01:09.883Z,93.13
2019-04-05T01:06:40.453Z,102.07
2019-04-05T01:09:09.468Z,95.77
2019-04-05T01:11:38.426Z,101.73
2019-04-05T01:14:07.212Z,107.93
2019-04-05T01:16:36.325Z,99.53
2019-04-05T01:19:05.306Z,99.60
2019-04-05T01:21:39.417Z,104.50
2019-04-05T01:24:09.634Z,108.57
2019-04-05T01:26:41.504Z,95.67
2019-04-05T01:29:10.701Z,96.23
2019-04-05T01:31:39.539Z,110.70
2019-04-05T01:34:08.563Z,101.87
2019-04-05T01:36:37.272Z,99.00
2019-04-05T01:39:06.946Z,109.73
2019-04-05T01:41:36.740Z,102.83
2019-04-05T01:44:05.610Z,116.87
2019-04-05T01:46:34.965Z,109.57
2019-04-05T01:49:04.013Z,102.33
2019-04-05T01:51:33.314Z,105.67
2019-04-05T01:54:02.685Z,102.97
2019-04-05T01:56:31.812Z,108.73
2019-04-05T01:59:00.855Z,104.93
2019-04-05T02:01:30.248Z,107.67
2019-04-05T02:03:59.383Z,110.13
2019-04-05T02:06:28.670Z,102.03
2019-04-05T02:08:57.539Z,101.90
2019-04-05T02:11:35.287Z,106.53
2019-04-05T02:14:04.251Z,108.30
2019-04-05T02:16:33.265Z,108.87
2019-04-05T02:19:02.371Z,108.07
2019-04-05T02:21:31.401Z,108.80
2019-04-05T02:24:00.514Z,107.90
2019-04-05T02:26:29.552Z,110.80
2019-04-05T02:28:58.658Z,112.70
2019-04-05T02:31:27.695Z,117.33
2019-04-05T02:33:56.482Z,110.20
2019-04-05T02:36:25.363Z,108.97
2019-04-05T02:38:54.398Z,105.97
2019-04-05T02:41:24.944Z,113.00
2019-04-05T02:43:56.555Z,100.97
2019-04-05T02:46:26.633Z,98.73
2019-04-05T02:48:57.202Z,99.70
2019-04-05T02:51:28.167Z,112.20
2019-04-05T02:53:58.677Z,112.23
2019-04-05T02:59:43.728Z,99.33
2019-04-05T03:02:12.684Z,100.50
2019-04-05T03:04:42.129Z,100.80
2019-04-05T03:07:11.253Z,105.03
2019-04-05T03:09:40.606Z,107.67
2019-04-05T03:12:09.718Z,101.73
2019-04-05T03:14:40.255Z,104.90
2019-04-05T03:17:11.399Z,100.57
2019-04-05T03:19:41.590Z,102.70
2019-04-05T03:22:13.628Z,108.90
2019-04-05T03:24:46.408Z,102.17
2019-04-05T03:27:23.440Z,101.70
2019-04-05T03:29:53.440Z,101.10
2019-04-05T03:32:22.866Z,111.40
2019-04-05T03:34:52.331Z,105.03
2019-04-05T03:37:22.208Z,107.37
2019-04-05T03:39:51.586Z,113.20
2019-04-05T03:42:21.034Z,103.63
2019-04-05T03:44:50.238Z,105.53
2019-04-05T03:47:19.583Z,109.17
2019-04-05T03:49:48.752Z,107.37
2019-04-05T03:52:17.528Z,116.53
2019-04-05T03:54:47.576Z,112.20
2019-04-05T03:57:17.073Z,107.60
2019-04-05T03:59:45.860Z,110.87
2019-04-05T04:02:14.957Z,113.33
2019-04-05T04:04:43.741Z,118.80
2019-04-05T04:07:13.236Z,112.60
2019-04-05T04:09:41.970Z,117.97
2019-04-05T04:12:11.267Z,109.60
2019-04-05T04:14:40.566Z,115.90
2019-04-05T04:17:12.569Z,105.13
2019-04-05T04:19:40.908Z,113.30
2019-04-05T04:22:28.057Z,109.07
2019-04-05T04:24:57.141Z,118.33
2019-04-05T04:27:26.846Z,122.17
2019-04-05T04:29:56.042Z,126.17
2019-04-05T04:32:24.917Z,119.47
2019-04-05T04:34:55.276Z,114.67
2019-04-05T04:37:24.541Z,118.33
2019-04-05T04:39:54.959Z,115.67
2019-04-05T04:42:24.911Z,114.27
2019-04-05T04:44:54.521Z,120.63
2019-04-05T04:47:26.919Z,117.77
2019-04-05T04:49:57.945Z,117.13
2019-04-05T04:52:31.215Z,109.17
2019-04-05T04:54:59.660Z,122.33
2019-04-05T04:57:29.019Z,110.27
2019-04-05T04:59:58.319Z,113.83
2019-04-05T05:02:27.336Z,111.80
2019-04-05T05:04:56.554Z,117.47
2019-04-05T05:07:25.783Z,113.73
2019-04-05T05:09:54.874Z,109.53
2019-04-05T05:12:25.219Z,115.50
2019-04-05T05:14:54.806Z,116.17
2019-04-05T05:17:23.749Z,131.63
2019-04-05T05:19:53.044Z,121.37
2019-04-05T05:22:21.907Z,114.20
2019-04-05T05:24:50.839Z,119.60
2019-04-05T05:27:20.085Z,122.97
2019-04-05T05:29:49.252Z,112.70
2019-04-05T05:32:18.602Z,120.60
2019-04-05T05:34:47.361Z,111.33
2019-04-05T05:37:16.375Z,115.83
2019-04-05T05:39:45.609Z,119.23
2019-04-05T05:42:14.755Z,117.97
2019-04-05T05:44:43.619Z,121.80
2019-04-05T05:47:12.681Z,119.40
2019-04-05T05:49:41.704Z,134.37
2019-04-05T05:52:11.298Z,136.13
2019-04-05T05:54:40.282Z,133.53
2019-04-05T05:57:09.321Z,140.47
2019-04-05T05:59:38.040Z,130.23
2019-04-05T06:02:07.328Z,131.50
2019-04-05T06:04:36.715Z,132.60
2019-04-05T06:07:05.593Z,134.83
2019-04-05T06:09:34.534Z,134.67
2019-04-05T06:12:03.254Z,139.07
2019-04-05T06:14:32.060Z,140.07
2019-04-05T06:17:01.004Z,129.10
2019-04-05T06:19:30.178Z,133.67
2019-04-05T06:21:58.886Z,131.20
2019-04-05T06:24:27.845Z,136.27
2019-04-05T06:26:56.898Z,132.33
2019-04-05T06:29:25.611Z,127.63
2019-04-05T06:31:54.315Z,135.23
2019-04-05T06:34:23.225Z,125.53
2019-04-05T06:36:51.952Z,134.97
2019-04-05T06:39:21.137Z,124.43
2019-04-05T06:41:49.870Z,135.47
2019-04-05T06:44:18.679Z,122.33
2019-04-05T06:46:47.388Z,130.43
2019-04-05T06:49:16.334Z,124.03
2019-04-05T06:51:45.702Z,117.90
2019-04-05T06:54:14.399Z,118.47
2019-04-05T06:56:43.355Z,113.77
2019-04-05T06:59:12.066Z,121.70
2019-04-05T07:01:41.040Z,128.03
2019-04-05T07:04:10.009Z,126.37
2019-04-05T07:06:38.953Z,117.43
2019-04-05T07:09:08.088Z,121.47
2019-04-05T07:11:36.897Z,127.23
2019-04-05T07:14:05.981Z,129.27
2019-04-05T07:16:34.993Z,124.73
2019-04-05T07:19:04.259Z,126.07
2019-04-05T07:21:33.209Z,121.73
2019-04-05T07:24:02.184Z,109.70
2019-04-05T07:26:31.144Z,117.17
2019-04-05T07:29:00.103Z,132.57
2019-04-05T07:31:29.063Z,114.17
2019-04-05T07:33:58.190Z,120.40
2019-04-05T07:36:27.232Z,105.87
2019-04-05T07:38:55.962Z,108.90
2019-04-05T07:41:24.928Z,109.57
2019-04-05T07:43:53.914Z,117.17
2019-04-05T07:46:22.910Z,110.40
2019-04-05T07:48:51.863Z,105.00
2019-04-05T07:51:22.771Z,125.77
2019-04-05T07:53:51.336Z,112.80
2019-04-05T07:56:20.371Z,117.07
2019-04-05T07:58:49.230Z,108.37
2019-04-05T08:01:18.229Z,114.93
2019-04-05T08:03:47.207Z,125.37
2019-04-05T08:06:16.843Z,105.53
2019-04-05T08:09:07.765Z,109.60
2019-04-05T08:11:38.133Z,96.27
2019-04-05T08:14:07.376Z,107.00
2019-04-05T08:16:36.417Z,101.27
2019-04-05T08:19:05.604Z,110.13
2019-04-05T08:21:34.559Z,118.60
2019-04-05T08:24:03.616Z,106.60
2019-04-05T08:26:32.743Z,112.53
2019-04-05T08:29:01.643Z,116.53
2019-04-05T08:31:30.581Z,112.57
2019-04-05T08:34:00.812Z,99.97
2019-04-05T08:36:32.597Z,99.20
2019-04-05T08:39:00.120Z,103.77
2019-04-05T08:41:29.173Z,111.93
2019-04-05T08:43:58.043Z,109.33
2019-04-05T08:46:26.844Z,111.50
2019-04-05T08:48:55.689Z,104.83
2019-04-05T08:51:24.475Z,108.97
2019-04-05T08:53:53.920Z,103.53
2019-04-05T08:56:22.868Z,100.57
2019-04-05T08:58:51.597Z,99.17
2019-04-05T09:01:20.607Z,106.57
2019-04-05T09:03:49.726Z,99.03
2019-04-05T09:06:18.631Z,105.17
2019-04-05T09:08:47.658Z,97.70
2019-04-05T09:11:16.645Z,103.97
2019-04-05T09:13:45.918Z,97.77
2019-04-05T09:16:14.758Z,102.07
2019-04-05T09:18:43.459Z,98.80
2019-04-05T09:21:12.418Z,99.17
2019-04-05T09:23:41.395Z,98.67
2019-04-05T09:26:10.488Z,101.43
2019-04-05T09:28:40.086Z,103.60
2019-04-05T09:31:09.115Z,103.10
2019-04-05T09:33:38.252Z,103.60
2019-04-05T09:36:07.457Z,102.83
2019-04-05T09:38:36.420Z,91.63
2019-04-05T09:41:05.632Z,98.60
2019-04-05T09:43:35.128Z,99.60
2019-04-05T09:46:04.217Z,99.23
2019-04-05T09:48:33.244Z,104.60
2019-04-05T09:51:02.225Z,101.27
2019-04-05T09:53:31.319Z,99.10
2019-04-05T09:56:00.728Z,104.10
2019-04-05T09:58:29.676Z,100.53
2019-04-05T10:00:58.743Z,97.87
2019-04-05T10:03:27.552Z,99.40
2019-04-05T10:05:56.748Z,86.40
2019-04-05T10:08:25.553Z,95.83
2019-04-05T10:10:54.985Z,98.50
2019-04-05T10:13:23.692Z,90.37
2019-04-05T10:15:52.727Z,86.03
2019-04-05T10:18:21.688Z,90.30
2019-04-05T10:20:50.655Z,88.10
2019-04-05T10:23:19.802Z,87.03
2019-04-05T10:25:48.726Z,90.03
2019-04-05T10:28:17.733Z,97.17
2019-04-05T10:30:46.985Z,89.83
2019-04-05T10:33:15.795Z,86.10
2019-04-05T10:35:44.862Z,89.20
2019-04-05T10:38:13.830Z,80.63
2019-04-05T10:40:42.847Z,78.07
2019-04-05T10:43:11.818Z,75.73
2019-04-05T10:45:40.976Z,83.40
2019-04-05T10:48:10.090Z,84.60
2019-04-05T10:50:39.023Z,90.80
2019-04-05T10:53:08.252Z,80.13
2019-04-05T10:55:37.069Z,91.87
2019-04-05T10:58:06.356Z,85.93
2019-04-05T11:00:35.407Z,87.80
2019-04-05T11:03:04.197Z,96.87
2019-04-05T11:05:33.292Z,86.27
2019-04-05T11:08:02.254Z,90.83
2019-04-05T11:10:30.961Z,85.63
2019-04-05T11:12:59.662Z,86.47
2019-04-05T11:15:28.819Z,79.10
2019-04-05T11:17:59.118Z,77.87
2019-04-05T11:20:27.928Z,80.47
2019-04-05T11:22:56.635Z,82.20
2019-04-05T11:25:25.603Z,79.80
2019-04-05T11:27:54.576Z,76.27
2019-04-05T11:30:44.516Z,95.40
2019-04-05T11:33:13.744Z,79.27
2019-04-05T11:35:42.727Z,84.57
2019-04-05T11:38:12.695Z,82.17
2019-04-05T11:40:41.970Z,84.83
2019-04-05T11:43:10.845Z,88.30
2019-04-05T11:45:39.931Z,83.80
2019-04-05T11:48:08.901Z,87.47
2019-04-05T11:50:37.936Z,82.00
2019-04-05T11:53:06.800Z,80.10
2019-04-05T11:55:36.629Z,81.90
2019-04-05T11:58:05.735Z,85.27
2019-04-05T12:00:46.792Z,77.47
2019-04-05T12:03:15.885Z,84.67
2019-04-05T12:05:45.163Z,83.93
2019-04-05T12:08:13.901Z,77.10
2019-04-05T12:10:43.036Z,80.93
2019-04-05T12:13:12.136Z,84.03
2019-04-05T12:15:42.446Z,82.83
2019-04-05T12:18:11.409Z,79.83
2019-04-05T12:20:49.140Z,78.23
2019-04-05T12:23:10.568Z,85.93
2019-04-05T12:25:39.687Z,86.90
2019-04-05T12:28:10.600Z,78.90
2019-04-05T12:30:40.027Z,80.33
2019-04-05T12:33:14.190Z,86.50
2019-04-05T12:35:39.933Z,80.90
2019-04-05T12:38:08.890Z,83.63
2019-04-05T12:40:40.310Z,79.93
2019-04-05T12:43:12.472Z,82.83
2019-04-05T12:45:39.243Z,86.30
2019-04-05T12:48:09.750Z,84.87
2019-04-05T12:50:38.715Z,84.60
2019-04-05T12:53:07.868Z,87.00
2019-04-05T12:55:37.258Z,80.27
2019-04-05T12:58:06.460Z,86.67
2019-04-05T13:00:35.606Z,75.30
2019-04-05T13:03:04.469Z,87.27
2019-04-05T13:05:33.433Z,86.57
2019-04-05T13:08:02.415Z,80.53
2019-04-05T13:10:31.208Z,82.33
2019-04-05T13:13:01.923Z,87.30
2019-04-05T13:15:31.052Z,78.23
2019-04-05T13:18:01.303Z,82.93
2019-04-05T13:20:30.798Z,88.60
2019-04-05T13:23:04.438Z,82.77
2019-04-05T13:25:30.647Z,85.77
2019-04-05T13:27:59.714Z,83.03
2019-04-05T13:30:28.763Z,81.80
2019-04-05T13:32:57.490Z,81.50
2019-04-05T13:35:26.937Z,82.47
2019-04-05T13:37:55.950Z,78.83
2019-04-05T13:40:25.001Z,79.77
2019-04-05T13:42:53.794Z,82.37
2019-04-05T13:45:22.787Z,83.97
2019-04-05T13:47:52.613Z,86.23
2019-04-05T13:50:21.439Z,86.13
2019-04-05T13:52:50.379Z,83.03
2019-04-05T13:55:19.417Z,82.20
2019-04-05T13:57:48.378Z,81.60
2019-04-05T14:00:18.540Z,79.60
2019-04-05T14:02:50.126Z,77.93
2019-04-05T14:05:18.448Z,83.57
2019-04-05T14:07:48.081Z,86.23
2019-04-05T14:10:17.276Z,89.57
2019-04-05T14:12:46.941Z,94.17
2019-04-05T14:15:15.812Z,85.13
2019-04-05T14:17:45.122Z,91.73
2019-04-05T14:20:18.562Z,95.73
2019-04-05T14:22:46.214Z,89.87
2019-04-05T14:25:15.228Z,94.63
2019-04-05T14:27:43.946Z,95.77
2019-04-05T14:30:13.761Z,87.10
2019-04-05T14:32:42.862Z,85.87
2019-04-05T14:35:11.966Z,87.03
2019-04-05T14:37:40.685Z,77.83
2019-04-05T14:40:10.694Z,81.63
2019-04-05T14:42:39.739Z,76.77
2019-04-05T14:45:08.928Z,72.43
2019-04-05T14:47:37.728Z,76.00
2019-04-05T14:50:07.172Z,78.00
2019-04-05T14:52:36.320Z,78.07
2019-04-05T14:55:05.700Z,80.50
2019-04-05T14:57:36.418Z,70.77
2019-04-05T15:00:06.118Z,75.50
2019-04-05T15:02:34.878Z,73.97
2019-04-05T15:05:04.016Z,77.67
2019-04-05T15:07:33.009Z,80.50
2019-04-05T15:10:03.721Z,87.00
2019-04-05T15:12:32.834Z,86.17
2019-04-05T15:15:01.725Z,87.80
2019-04-05T15:17:30.583Z,96.27
2019-04-05T15:19:59.564Z,96.30
2019-04-05T15:22:28.546Z,90.97
2019-04-05T15:24:57.269Z,96.87
2019-04-05T15:27:26.256Z,97.90
2019-04-05T15:29:55.738Z,96.63
2019-04-05T15:32:26.106Z,97.23
2019-04-05T15:34:56.613Z,95.00
2019-04-05T15:37:25.777Z,93.43
2019-04-05T15:39:54.771Z,89.10
2019-04-05T15:42:23.952Z,100.47
2019-04-05T15:44:59.556Z,101.83
2019-04-05T15:47:28.534Z,99.37
2019-04-05T15:49:57.631Z,96.07
2019-04-05T15:52:30.121Z,95.27
2019-04-05T17:55:52.321Z,94.50
2019-04-05T17:58:22.698Z,104.50
2019-04-05T18:00:51.681Z,110.27
2019-04-05T18:03:20.797Z,101.40
2019-04-05T18:05:49.883Z,99.57
2019-04-05T18:08:19.083Z,97.17
2019-04-05T18:10:48.043Z,99.30
2019-04-05T18:13:17.084Z,93.10
2019-04-05T18:15:52.267Z,94.23
2019-04-05T18:18:16.942Z,94.00
2019-04-05T18:20:55.808Z,90.07
2019-04-05T18:23:24.866Z,88.33
2019-04-05T18:25:46.909Z,92.77
2019-04-05T18:28:15.902Z,90.83
2019-04-05T18:30:44.912Z,93.83
2019-04-05T18:33:13.839Z,97.93
2019-04-05T18:35:42.825Z,93.57
2019-04-05T18:38:11.928Z,84.27
2019-04-05T18:40:40.735Z,93.97
2019-04-05T18:43:09.456Z,88.03
2019-04-05T18:45:38.548Z,83.00
2019-04-05T18:48:07.645Z,88.73
2019-04-05T18:50:36.522Z,84.67
2019-04-05T18:53:05.646Z,87.30
2019-04-05T18:55:34.626Z,84.47
2019-04-05T18:58:03.417Z,90.10
2019-04-05T19:00:32.517Z,89.20
2019-04-05T19:03:01.412Z,84.00
2019-04-05T19:05:30.363Z,98.87
2019-04-05T19:07:59.339Z,87.37
2019-04-05T19:10:36.875Z,87.63
2019-04-05T19:12:59.482Z,87.40
2019-04-05T19:15:28.771Z,83.93
2019-04-05T19:17:57.823Z,83.83
2019-04-05T19:20:26.685Z,84.17
2019-04-05T19:22:55.679Z,88.60
2019-04-05T19:25:24.711Z,93.23
2019-04-05T19:27:53.677Z,87.03
2019-04-05T19:50:30.691Z,83.17
2019-04-05T19:52:59.470Z,90.10
2019-04-05T19:55:28.438Z,87.40
2019-04-05T19:57:57.561Z,82.67
2019-04-05T20:00:26.618Z,87.23
2019-04-05T20:02:55.580Z,85.53
2019-04-05T20:05:24.278Z,92.07
2019-04-05T20:07:53.299Z,81.10
2019-04-05T20:10:22.588Z,90.73
2019-04-05T20:12:51.525Z,94.27
2019-04-05T20:15:20.492Z,83.87
2019-04-05T20:17:49.682Z,92.13
2019-04-05T20:20:18.658Z,81.37
2019-04-05T20:22:47.628Z,85.40
2019-04-05T20:25:16.742Z,84.23
2019-04-05T20:27:45.676Z,84.23
2019-04-05T20:30:14.801Z,83.47
2019-04-05T20:32:43.766Z,85.07
2019-04-05T20:35:14.080Z,74.17
2019-04-05T20:37:42.795Z,87.07
2019-04-05T20:40:12.207Z,75.20
2019-04-05T20:42:41.152Z,81.00
2019-04-05T20:45:10.381Z,85.17
2019-04-05T20:47:39.216Z,80.23
2019-04-05T20:50:08.486Z,85.73
2019-04-05T20:52:37.460Z,79.90
2019-04-05T20:55:07.440Z,80.90
2019-04-05T20:57:36.525Z,80.93
2019-04-05T21:00:07.841Z,83.30
2019-04-05T21:02:36.751Z,74.20
2019-04-05T21:05:05.803Z,74.10
2019-04-05T21:07:34.776Z,79.57
2019-04-05T21:10:03.900Z,74.93
2019-04-05T21:12:32.612Z,78.00
2019-04-05T21:15:01.649Z,71.33
2019-04-05T21:17:30.610Z,74.53
2019-04-05T21:19:59.382Z,79.67
2019-04-05T21:22:28.336Z,71.47
2019-04-05T21:24:57.047Z,74.33
2019-04-05T21:27:25.987Z,72.07
2019-04-05T21:29:54.947Z,75.47
2019-04-05T21:32:23.920Z,80.67
2019-04-05T21:34:52.870Z,73.77
2019-04-05T21:37:22.831Z,68.67
2019-04-05T21:39:51.850Z,68.53
2019-04-05T21:42:20.789Z,77.07
2019-04-05T21:44:49.734Z,72.00
2019-04-05T21:47:18.796Z,76.63
2019-04-05T21:49:48.013Z,73.10
2019-04-05T21:52:17.180Z,73.40
2019-04-05T21:54:47.781Z,68.90
2019-04-05T21:57:18.036Z,76.90
2019-04-05T21:59:48.619Z,78.77
2019-04-05T22:02:18.033Z,76.67
2019-04-05T22:04:46.964Z,75.00
2019-04-05T22:07:16.026Z,77.60
2019-04-05T22:09:45.633Z,73.90
2019-04-05T22:12:14.767Z,76.67
2019-04-05T22:14:43.924Z,77.73
2019-04-05T22:17:13.205Z,74.50
2019-04-05T22:19:42.414Z,82.57
2019-04-05T22:22:11.680Z,84.63
2019-04-05T22:24:40.877Z,86.67
2019-04-05T22:27:10.162Z,84.30
2019-04-05T22:29:39.246Z,83.03
2019-04-05T22:32:08.369Z,85.10
2019-04-05T22:34:37.507Z,89.43
2019-04-05T22:37:06.431Z,88.30
2019-04-05T22:39:35.487Z,81.17
2019-04-05T22:42:04.333Z,79.03
2019-04-05T22:44:39.874Z,81.17
2019-04-05T22:47:04.534Z,83.17
2019-04-05T22:49:34.512Z,77.60
2019-04-05T22:52:03.632Z,79.10
2019-04-05T22:54:33.250Z,89.23
2019-04-05T22:57:02.307Z,87.60
2019-04-05T22:59:31.572Z,95.67
2019-04-05T23:02:00.785Z,98.90
2019-04-05T23:04:30.391Z,89.50
2019-04-05T23:06:59.714Z,86.70
2019-04-05T23:09:29.137Z,87.93
2019-04-05T23:11:58.296Z,92.23
2019-04-05T23:14:27.428Z,88.20
2019-04-05T23:16:56.562Z,85.40
2019-04-05T23:19:25.495Z,93.90
2019-04-05T23:21:54.569Z,85.70
2019-04-05T23:24:23.391Z,86.77
2019-04-05T23:26:52.644Z,83.20
2019-04-05T23:29:22.083Z,84.13
2019-04-05T23:31:51.121Z,84.80
2019-04-05T23:34:20.632Z,78.47
2019-04-05T23:36:50.133Z,85.70
2019-04-05T23:39:18.946Z,84.47
2019-04-05T23:41:48.098Z,86.37
2019-04-05T23:44:17.029Z,81.20
2019-04-05T23:46:46.064Z,77.70
2019-04-05T23:49:15.447Z,79.87
2019-04-05T23:51:44.538Z,86.90
2019-04-05T23:54:13.628Z,88.83
2019-04-05T23:56:42.784Z,83.13
2019-04-05T23:59:12.317Z,83.97
